Time;durP1;ratioP1;P1;durP2;ratioP2;P2;SDS_P1;SDS_P2;PMS_P1;PMS_P2;Temp;Humidity;BMP_temperature;BMP_pressure;BME280_temperature;BME280_humidity;BME280_pressure;Samples;Min_cycle;Max_cycle;Signal;HPM_P1;HPM_P2
2022/01/30 00:02:11;;;;;;;15.23;4.03;;;;;;;6.55;73.29;100715.25;5041899;28;20258;-80
2022/01/30 00:04:36;;;;;;;27.40;4.63;;;;;;;6.51;73.63;100717.56;5041690;28;20036;-80
2022/01/30 00:07:02;;;;;;;25.35;5.32;;;;;;;6.53;74.77;100714.66;5041434;28;20258;-78
2022/01/30 00:09:27;;;;;;;18.42;3.95;;;;;;;6.89;72.88;100713.22;5043094;28;20132;-80
2022/01/30 00:11:59;;;;;;;20.52;4.50;;;;;;;6.80;73.94;100714.53;5043174;28;20365;-81
2022/01/30 00:14:27;;;;;;;22.85;6.85;;;;;;;6.65;74.35;100718.34;5041538;28;20049;-79
2022/01/30 00:17:09;;;;;;;17.42;4.63;;;;;;;6.95;73.69;100721.56;5025655;28;20056;-80
2022/01/30 00:19:42;;;;;;;23.50;5.03;;;;;;;6.69;74.04;100734.19;5025299;28;20497;-79
2022/01/30 00:22:24;;;;;;;12.80;4.68;;;;;;;6.60;74.35;100742.56;5042983;28;20037;-80
2022/01/30 00:24:56;;;;;;;24.38;5.18;;;;;;;6.65;73.78;100745.44;5047503;28;20350;-79
2022/01/30 00:27:32;;;;;;;20.63;6.40;;;;;;;6.32;74.94;100741.00;5061339;28;20046;-79
2022/01/30 00:29:58;;;;;;;15.10;4.95;;;;;;;6.29;75.00;100744.09;5023323;28;20080;-80
2022/01/30 00:32:23;;;;;;;11.30;4.90;;;;;;;6.38;75.12;100745.56;5041997;28;20436;-80
2022/01/30 00:34:49;;;;;;;21.35;5.45;;;;;;;6.36;74.06;100755.78;5027724;28;20268;-80
2022/01/30 00:37:16;;;;;;;18.55;4.75;;;;;;;6.58;74.16;100758.19;5026182;28;20027;-80
2022/01/30 00:39:42;;;;;;;13.40;4.68;;;;;;;6.46;74.25;100758.03;5026328;28;20025;-80
2022/01/30 00:42:07;;;;;;;12.65;3.75;;;;;;;6.75;73.40;100760.44;5044118;28;20083;-80
2022/01/30 00:44:33;;;;;;;19.25;4.55;;;;;;;6.46;74.57;100754.47;5046036;28;20056;-81
2022/01/30 00:47:02;;;;;;;18.33;5.68;;;;;;;6.71;73.49;100742.94;5046672;28;20057;-80
2022/01/30 00:49:27;;;;;;;16.95;5.40;;;;;;;6.30;73.60;100759.31;5046452;28;20045;-80
2022/01/30 00:51:52;;;;;;;19.42;5.10;;;;;;;6.40;73.82;100764.31;5047024;28;20102;-80
2022/01/30 00:54:18;;;;;;;26.90;4.50;;;;;;;6.21;73.92;100756.00;5045949;28;20051;-79
2022/01/30 00:56:43;;;;;;;21.40;3.80;;;;;;;6.61;73.20;100765.88;5046609;28;20104;-78
2022/01/30 00:59:08;;;;;;;16.30;4.13;;;;;;;6.28;73.55;100766.84;5045710;28;20037;-80
2022/01/30 01:01:34;;;;;;;14.85;5.95;;;;;;;6.49;73.28;100751.38;5045729;28;20050;-80
2022/01/30 01:03:59;;;;;;;20.58;4.25;;;;;;;5.89;73.81;100764.75;5046591;28;20036;-79
2022/01/30 01:06:25;;;;;;;14.98;4.78;;;;;;;6.18;74.29;100767.25;5044146;28;20616;-80
2022/01/30 01:08:56;;;;;;;19.15;4.20;;;;;;;6.13;73.95;100765.19;5047185;28;20025;-79
2022/01/30 01:24:07;;;;;;;22.70;4.80;;;;;;;6.13;73.90;100751.63;5044996;28;20032;-80
2022/01/30 01:26:34;;;;;;;10.73;4.65;;;;;;;5.84;74.14;100751.00;5045315;28;20071;-80
2022/01/30 01:29:00;;;;;;;18.25;6.65;;;;;;;6.42;73.15;100754.94;5043571;28;20041;-79
2022/01/30 01:31:26;;;;;;;22.08;6.97;;;;;;;5.94;74.15;100756.81;5045481;28;20048;-80
2022/01/30 01:36:36;;;;;;;14.30;4.53;;;;;;;5.91;74.92;100746.44;5043825;28;20094;-77
2022/01/30 01:39:03;;;;;;;14.10;5.75;;;;;;;5.77;75.14;100755.59;5046045;28;20033;-79
2022/01/30 01:41:30;;;;;;;16.40;3.55;;;;;;;6.31;73.75;100747.44;5048327;28;20111;-79
2022/01/30 01:43:55;;;;;;;15.32;4.40;;;;;;;5.35;76.75;100757.41;5045424;28;20683;-79
2022/01/30 01:46:35;;;;;;;18.23;5.68;;;;;;;5.77;75.63;100747.47;5045417;28;20045;-80
2022/01/30 01:49:01;;;;;;;21.73;4.88;;;;;;;5.93;75.26;100762.47;5044984;28;20116;-80
2022/01/30 01:51:33;;;;;;;17.13;5.05;;;;;;;5.52;76.00;100759.75;5060008;28;20036;-79
2022/01/30 01:53:59;;;;;;;21.73;5.63;;;;;;;5.38;76.96;100764.31;5043686;28;20053;-79
2022/01/30 01:56:26;;;;;;;18.52;3.80;;;;;;;5.86;76.12;100759.75;5045997;28;20037;-79
2022/01/30 01:58:51;;;;;;;14.77;4.38;;;;;;;5.54;76.65;100773.06;5043562;28;20447;-80
2022/01/30 02:01:17;;;;;;;16.75;4.05;;;;;;;5.92;75.43;100768.94;5044768;28;20068;-77
2022/01/30 02:03:44;;;;;;;18.00;4.95;;;;;;;5.95;74.82;100766.63;5045275;28;20171;-79
2022/01/30 02:06:13;;;;;;;19.52;5.93;;;;;;;5.73;75.57;100774.94;5043530;28;20112;-79
2022/01/30 02:08:43;;;;;;;26.63;4.93;;;;;;;5.25;77.83;100781.31;5044854;28;20051;-79
2022/01/30 02:11:13;;;;;;;19.38;4.78;;;;;;;5.36;77.56;100788.00;5043240;28;20498;-80
2022/01/30 02:27:39;;;;;;;18.88;5.85;;;;;;;5.64;76.25;100802.41;5044247;28;20037;-79
2022/01/30 02:30:10;;;;;;;15.40;4.65;;;;;;;5.48;76.72;100808.00;5045069;28;20071;-80
2022/01/30 02:32:35;;;;;;;19.30;5.18;;;;;;;5.19;77.75;100811.88;5043107;28;20028;-79
2022/01/30 02:35:01;;;;;;;13.95;4.78;;;;;;;5.43;77.24;100809.69;5044190;28;20017;-79
2022/01/30 02:37:26;;;;;;;27.95;5.88;;;;;;;5.35;76.72;100808.00;5043887;28;20263;-77
2022/01/30 02:39:51;;;;;;;16.02;6.13;;;;;;;5.69;76.19;100802.63;5044575;28;20495;-77
2022/01/30 02:42:20;;;;;;;28.27;6.40;;;;;;;5.39;76.81;100809.22;5044449;28;20120;-78
2022/01/30 02:44:52;;;;;;;21.80;6.13;;;;;;;5.67;76.76;100810.13;5044711;28;20031;-79
2022/01/30 02:47:25;;;;;;;26.80;7.30;;;;;;;5.56;76.58;100815.09;5045106;28;20132;-80
2022/01/30 02:52:44;;;;;;;22.95;7.65;;;;;;;5.28;77.99;100801.72;5055877;28;20039;-77
2022/01/30 02:55:12;;;;;;;21.20;5.90;;;;;;;5.44;77.16;100812.16;5062781;28;20032;-78
2022/01/30 02:57:37;;;;;;;18.02;5.10;;;;;;;4.99;78.90;100809.94;5062386;28;20635;-79
2022/01/30 03:00:08;;;;;;;18.65;6.18;;;;;;;4.98;78.49;100819.91;5043863;28;20078;-79
2022/01/30 03:02:45;;;;;;;19.13;6.45;;;;;;;5.22;77.16;100816.88;5043111;28;20115;-81
2022/01/30 03:05:11;;;;;;;19.63;6.65;;;;;;;5.51;76.63;100808.66;5043590;28;20510;-78
2022/01/30 03:07:36;;;;;;;36.88;6.30;;;;;;;5.32;76.64;100813.78;5043346;28;20100;-80
2022/01/30 03:10:02;;;;;;;24.17;6.80;;;;;;;4.91;77.92;100813.66;5042326;28;20036;-81
2022/01/30 03:12:27;;;;;;;16.35;4.35;;;;;;;5.19;77.08;100793.78;5058341;28;20152;-79
2022/01/30 03:14:53;;;;;;;26.55;7.90;;;;;;;5.16;77.36;100799.63;5044321;28;20830;-80
2022/01/30 03:17:18;;;;;;;21.58;6.30;;;;;;;4.92;78.47;100799.13;5043129;28;20041;-80
2022/01/30 03:19:44;;;;;;;16.75;6.60;;;;;;;5.09;77.66;100801.44;5042230;28;20029;-78
2022/01/30 03:22:10;;;;;;;21.42;5.30;;;;;;;4.59;78.98;100814.13;5044270;28;20040;-79
2022/01/30 03:24:36;;;;;;;17.15;5.20;;;;;;;4.99;77.72;100805.38;5042815;28;20025;-79
2022/01/30 03:27:07;;;;;;;22.15;7.10;;;;;;;5.07;78.23;100804.34;5044055;28;20152;-80
2022/01/30 03:29:33;;;;;;;34.50;5.90;;;;;;;4.87;77.92;100806.97;5041834;28;20105;-79
2022/01/30 03:31:59;;;;;;;22.17;5.75;;;;;;;5.13;77.56;100818.94;5043485;28;20056;-79
2022/01/30 03:34:24;;;;;;;17.80;5.78;;;;;;;4.84;77.57;100812.78;5043637;28;20115;-78
2022/01/30 03:36:51;;;;;;;26.02;6.43;;;;;;;4.68;78.66;100822.88;5042633;28;20096;-79
2022/01/30 03:39:16;;;;;;;36.22;6.75;;;;;;;4.89;78.30;100826.53;5044003;28;20025;-78
2022/01/30 03:41:42;;;;;;;24.10;6.85;;;;;;;5.15;77.72;100830.38;5041662;28;20570;-79
2022/01/30 03:44:07;;;;;;;20.25;5.78;;;;;;;5.05;77.35;100819.09;5043386;28;20108;-79
2022/01/30 03:46:33;;;;;;;25.27;7.15;;;;;;;5.05;78.11;100829.91;5041857;28;20133;-79
2022/01/30 03:48:58;;;;;;;26.50;4.32;;;;;;;4.70;78.25;100828.91;5043138;28;20021;-77
2022/01/30 03:51:23;;;;;;;20.98;7.70;;;;;;;5.27;77.21;100821.69;5042696;28;20083;-79
2022/01/30 03:53:48;;;;;;;21.85;6.18;;;;;;;5.11;76.68;100834.53;5041685;28;20110;-79
2022/01/30 03:56:14;;;;;;;20.38;6.57;;;;;;;4.92;77.48;100839.66;5041832;28;20446;-79
2022/01/30 03:58:39;;;;;;;28.83;5.68;;;;;;;5.37;76.60;100838.34;5039973;28;20037;-79
2022/01/30 04:01:05;;;;;;;33.87;7.40;;;;;;;5.44;75.83;100839.22;5043590;28;20500;-79
2022/01/30 04:03:30;;;;;;;31.10;7.00;;;;;;;5.63;75.43;100836.78;5042248;28;20254;-79
2022/01/30 04:05:56;;;;;;;20.30;6.15;;;;;;;5.51;75.41;100833.00;5042192;28;20033;-79
2022/01/30 04:08:22;;;;;;;25.58;6.53;;;;;;;5.37;75.46;100828.38;5042047;28;20049;-79
2022/01/30 04:10:48;;;;;;;14.02;5.05;;;;;;;5.23;75.04;100835.59;5042894;28;20136;-79
2022/01/30 04:13:13;;;;;;;16.65;5.07;;;;;;;5.09;74.77;100839.28;5043082;28;20021;-79
2022/01/30 04:15:38;;;;;;;19.05;5.47;;;;;;;4.96;76.18;100838.22;5041802;28;20119;-80
2022/01/30 04:18:04;;;;;;;24.92;7.40;;;;;;;5.17;74.97;100859.91;5043774;28;20039;-81
2022/01/30 04:23:33;;;;;;;22.10;5.68;;;;;;;5.08;76.03;100851.16;5043718;28;20079;-78
2022/01/30 04:25:58;;;;;;;20.02;5.38;;;;;;;5.36;75.34;100852.91;5046063;28;20052;-80
2022/01/30 04:28:24;;;;;;;25.15;5.53;;;;;;;5.07;75.69;100861.13;5045958;28;20040;-80
2022/01/30 04:30:49;;;;;;;14.75;4.53;;;;;;;5.21;74.92;100864.72;5046221;28;20049;-80
2022/01/30 04:33:15;;;;;;;22.48;4.57;;;;;;;4.64;75.64;100875.63;5044620;28;20025;-80
2022/01/30 04:35:41;;;;;;;20.77;5.30;;;;;;;5.35;75.22;100873.72;5047089;28;20032;-79
2022/01/30 04:54:50;;;;;;;21.42;4.95;;;;;;;5.12;75.05;100863.25;5046503;28;20163;-81
2022/01/30 04:57:02;;;;;;;15.35;3.97;;;;;;;4.81;75.77;100864.53;5046561;28;20090;-80
2022/01/30 05:05:08;;;;;;;24.58;4.32;;;;;;;4.58;76.79;100876.47;5046191;28;20045;-79
2022/01/30 05:07:36;;;;;;;15.63;5.75;;;;;;;4.76;77.06;100881.34;5045056;28;20049;-81
2022/01/30 05:10:14;;;;;;;25.17;5.15;;;;;;;4.50;77.93;100889.06;5046657;28;20114;-81
2022/01/30 05:12:48;;;;;;;24.88;5.75;;;;;;;4.58;77.15;100892.66;5043978;28;20442;-81
2022/01/30 05:15:14;;;;;;;20.97;5.00;;;;;;;4.85;76.78;100890.97;5046296;28;20020;-81
2022/01/30 05:17:42;;;;;;;27.02;6.13;;;;;;;5.26;75.71;100896.56;5048672;28;20048;-80
2022/01/30 05:20:08;;;;;;;15.73;3.85;;;;;;;5.04;76.22;100887.72;5055347;28;20070;-80
2022/01/30 05:22:34;;;;;;;33.78;7.53;;;;;;;4.44;77.33;100893.38;5069266;28;20035;-80
2022/01/30 05:25:00;;;;;;;17.35;3.88;;;;;;;4.97;76.31;100893.94;5067832;28;20036;-80
2022/01/30 05:27:26;;;;;;;21.30;4.20;;;;;;;4.92;75.49;100892.88;5069930;28;20449;-80
2022/01/30 05:29:51;;;;;;;11.43;3.55;;;;;;;4.97;75.91;100893.94;5067096;28;20049;-80
2022/01/30 05:32:17;;;;;;;22.67;4.65;;;;;;;4.59;76.77;100914.06;5069094;28;20063;-81
2022/01/30 05:34:42;;;;;;;20.20;6.05;;;;;;;5.12;75.65;100911.91;5068472;28;20491;-80
2022/01/30 05:37:08;;;;;;;20.80;5.18;;;;;;;4.84;75.69;100912.78;5069322;28;20024;-81
2022/01/30 05:39:34;;;;;;;19.17;3.88;;;;;;;4.86;75.80;100913.41;5068943;28;20027;-79
2022/01/30 05:42:00;;;;;;;14.77;4.90;;;;;;;5.38;74.04;100910.34;5068037;28;20021;-80
2022/01/30 05:44:39;;;;;;;16.23;4.72;;;;;;;5.05;75.03;100914.56;5069346;28;20048;-81
2022/01/30 05:47:09;;;;;;;16.08;4.03;;;;;;;5.47;73.64;100925.34;5067588;28;20024;-80
2022/01/30 05:49:36;;;;;;;14.38;4.47;;;;;;;5.31;73.28;100931.94;5066047;28;20036;-80
2022/01/30 05:52:02;;;;;;;15.80;5.05;;;;;;;5.20;74.52;100913.59;5048352;28;20071;-80
2022/01/30 05:54:27;;;;;;;16.48;3.95;;;;;;;5.02;72.93;100923.91;5048249;28;20037;-80
2022/01/30 05:56:53;;;;;;;21.83;3.75;;;;;;;4.92;73.95;100928.84;5048818;28;20017;-80
2022/01/30 05:59:18;;;;;;;24.13;4.43;;;;;;;4.59;74.53;100930.28;5046749;28;20070;-81
2022/01/30 06:01:43;;;;;;;16.48;6.15;;;;;;;5.27;73.70;100930.69;5048966;28;20270;-82
2022/01/30 06:04:08;;;;;;;13.63;4.05;;;;;;;4.96;74.67;100938.22;5047385;28;20663;-80
2022/01/30 06:06:34;;;;;;;23.03;5.33;;;;;;;4.93;74.81;100925.09;5049035;28;20035;-80
2022/01/30 06:09:18;;;;;;;21.75;6.05;;;;;;;4.81;74.58;100921.28;5046960;28;20803;-80
2022/01/30 06:11:47;;;;;;;19.33;4.93;;;;;;;5.17;74.04;100935.63;5047817;28;20032;-78
2022/01/30 06:14:14;;;;;;;21.63;5.57;;;;;;;5.18;74.47;100950.81;5048602;28;20028;-80
2022/01/30 06:16:53;;;;;;;13.95;5.68;;;;;;;5.03;75.49;100943.66;5047563;28;20027;-79
2022/01/30 06:19:19;;;;;;;18.30;4.85;;;;;;;5.23;74.51;100934.81;5048850;28;20060;-80
2022/01/30 06:21:45;;;;;;;11.32;4.00;;;;;;;4.93;75.42;100956.69;5046728;28;20067;-80
2022/01/30 06:24:11;;;;;;;17.50;4.38;;;;;;;5.12;75.21;100955.16;5048077;28;20411;-80
2022/01/30 06:26:36;;;;;;;17.75;4.57;;;;;;;4.69;76.17;100956.09;5046973;28;20111;-80
2022/01/30 06:29:02;;;;;;;19.63;5.63;;;;;;;4.78;76.41;100958.47;5046840;28;20041;-80
2022/01/30 06:31:27;;;;;;;17.60;4.88;;;;;;;4.98;75.96;100965.88;5048625;28;20488;-80
2022/01/30 06:33:52;;;;;;;14.68;4.78;;;;;;;4.71;76.43;100965.69;5046749;28;20048;-79
2022/01/30 06:36:18;;;;;;;14.98;5.35;;;;;;;4.82;76.80;100968.91;5047523;28;20041;-80
2022/01/30 06:38:43;;;;;;;11.85;4.30;;;;;;;4.76;77.21;100968.63;5046782;28;20078;-79
2022/01/30 06:41:09;;;;;;;21.23;5.15;;;;;;;4.69;77.18;100967.75;5058084;28;20066;-80
2022/01/30 06:43:34;;;;;;;19.55;3.60;;;;;;;5.04;75.98;100966.97;5066784;28;20419;-81
2022/01/30 06:45:59;;;;;;;14.45;4.18;;;;;;;4.92;76.51;100980.19;5068387;28;20048;-79
2022/01/30 06:48:24;;;;;;;25.63;5.57;;;;;;;4.53;77.99;100985.09;5067421;28;20024;-78
2022/01/30 06:50:50;;;;;;;12.00;3.95;;;;;;;4.91;76.45;100981.22;5052808;28;20028;-79
2022/01/30 06:53:15;;;;;;;16.77;4.78;;;;;;;4.47;77.25;100985.84;5047632;28;20043;-80
2022/01/30 06:55:42;;;;;;;13.48;5.28;;;;;;;4.65;76.79;100994.34;5045240;28;20708;-79
2022/01/30 06:58:08;;;;;;;18.25;5.20;;;;;;;4.49;77.50;100995.44;5047082;28;20025;-79
2022/01/30 07:00:34;;;;;;;22.50;4.93;;;;;;;4.52;77.01;101007.72;5045835;28;20033;-80
2022/01/30 07:03:00;;;;;;;16.77;3.83;;;;;;;4.29;77.04;101004.16;5048804;28;20116;-81
2022/01/30 07:05:25;;;;;;;13.13;4.28;;;;;;;4.10;77.43;101002.94;5047419;28;20024;-79
2022/01/30 07:07:51;;;;;;;18.83;6.80;;;;;;;4.31;77.41;101006.69;5047077;28;20025;-79
2022/01/30 07:10:16;;;;;;;22.87;5.77;;;;;;;4.47;76.18;101002.91;5047183;28;20017;-80
2022/01/30 07:12:42;;;;;;;19.35;5.35;;;;;;;4.21;77.77;101009.69;5046276;28;20262;-80
2022/01/30 07:15:08;;;;;;;15.95;5.50;;;;;;;4.52;75.56;101019.34;5047724;28;20089;-81
2022/01/30 07:17:33;;;;;;;18.15;4.60;;;;;;;4.86;75.00;101021.53;5045738;28;20079;-79
2022/01/30 07:19:59;;;;;;;23.00;6.30;;;;;;;4.55;75.58;101035.19;5046415;28;20029;-79
2022/01/30 07:22:27;;;;;;;14.25;5.15;;;;;;;4.31;76.59;101026.41;5045756;28;20037;-79
2022/01/30 07:25:07;;;;;;;19.23;5.80;;;;;;;4.13;77.31;101029.53;5046276;28;20179;-78
2022/01/30 07:27:37;;;;;;;13.68;4.00;;;;;;;4.11;76.82;101037.00;5047662;28;20036;-79
2022/01/30 07:30:06;;;;;;;20.63;4.63;;;;;;;4.47;76.04;101032.63;5046095;28;20052;-80
2022/01/30 07:32:31;;;;;;;14.82;3.25;;;;;;;4.62;75.62;101037.09;5048113;28;20101;-80
2022/01/30 07:34:56;;;;;;;12.15;3.53;;;;;;;5.02;74.53;101036.63;5045712;28;20020;-79
2022/01/30 07:37:23;;;;;;;18.65;6.25;;;;;;;4.59;75.70;101037.50;5046343;28;20602;-79
2022/01/30 07:39:49;;;;;;;17.38;6.00;;;;;;;4.54;75.87;101049.72;5045777;28;20028;-79
2022/01/30 07:42:15;;;;;;;15.25;3.38;;;;;;;4.39;76.32;101049.78;5065264;28;20030;-81
2022/01/30 07:44:40;;;;;;;18.77;5.03;;;;;;;4.70;76.07;101046.94;5067018;28;20104;-78
2022/01/30 07:47:06;;;;;;;16.30;4.38;;;;;;;4.18;77.38;101058.69;5065554;28;20517;-80
2022/01/30 07:49:31;;;;;;;27.65;5.22;;;;;;;4.14;77.90;101058.22;5065778;28;20024;-80
2022/01/30 07:51:57;;;;;;;14.18;4.65;;;;;;;4.69;76.45;101054.22;5065379;28;20020;-80
2022/01/30 07:54:22;;;;;;;21.65;4.60;;;;;;;4.35;76.33;101069.25;5067227;28;20028;-81
2022/01/30 07:56:48;;;;;;;25.75;4.85;;;;;;;4.64;76.56;101065.59;5065229;28;20028;-80
2022/01/30 07:59:14;;;;;;;10.77;4.20;;;;;;;4.79;76.25;101065.53;5057954;28;20082;-78
2022/01/30 08:01:39;;;;;;;30.85;4.40;;;;;;;4.69;76.39;101070.44;5046811;28;20087;-79
2022/01/30 08:04:08;;;;;;;11.85;2.85;;;;;;;4.16;77.25;101083.16;5046201;28;20079;-80
2022/01/30 08:06:34;;;;;;;15.98;5.13;;;;;;;4.32;77.07;101084.81;5047405;28;20029;-80
2022/01/30 08:09:00;;;;;;;17.20;4.18;;;;;;;4.18;77.07;101085.69;5045239;28;20551;-79
2022/01/30 08:11:25;;;;;;;18.67;5.40;;;;;;;4.41;76.68;101084.69;5046730;28;20060;-80
2022/01/30 08:16:34;;;;;;;15.90;4.95;;;;;;;4.52;76.33;101089.59;5038323;28;20091;-80
2022/01/30 08:19:00;;;;;;;22.52;4.35;;;;;;;4.27;77.45;101086.41;5062602;28;20036;-80
2022/01/30 08:21:25;;;;;;;12.68;3.60;;;;;;;4.65;75.86;101078.09;5054372;28;20086;-78
2022/01/30 08:23:50;;;;;;;13.18;4.22;;;;;;;4.69;75.43;101083.94;5057162;28;20051;-79
2022/01/30 08:26:16;;;;;;;20.98;4.38;;;;;;;4.51;75.94;101085.22;5061164;28;20028;-80
2022/01/30 08:28:41;;;;;;;19.38;4.93;;;;;;;4.67;75.29;101077.88;5077871;28;20552;-81
2022/01/30 08:31:06;;;;;;;17.77;4.43;;;;;;;4.70;75.43;101082.91;5041845;28;20036;-81
2022/01/30 08:33:32;;;;;;;17.50;4.93;;;;;;;4.77;75.54;101108.13;5063760;28;20486;-81
2022/01/30 08:35:57;;;;;;;20.45;4.47;;;;;;;4.35;76.28;101098.97;5061962;28;20284;-80
2022/01/30 08:38:22;;;;;;;12.57;3.65;;;;;;;4.38;76.06;101087.75;5062825;28;20041;-81
2022/01/30 08:40:48;;;;;;;21.90;5.22;;;;;;;4.79;75.01;101095.25;5063654;28;20451;-79
2022/01/30 08:43:15;;;;;;;16.15;5.55;;;;;;;3.97;77.94;101092.69;5062271;28;20090;-81
2022/01/30 08:45:41;;;;;;;15.25;3.72;;;;;;;4.19;77.29;101101.69;5046217;28;20032;-80
2022/01/30 08:48:07;;;;;;;21.55;4.47;;;;;;;4.79;75.24;101097.97;5062426;28;20124;-79
2022/01/30 08:50:33;;;;;;;18.95;5.60;;;;;;;4.27;77.24;101106.13;5062948;28;20035;-77
2022/01/30 08:52:58;;;;;;;17.75;4.35;;;;;;;4.71;76.14;101089.97;5065063;28;20036;-80
2022/01/30 08:58:26;;;;;;;26.30;4.43;;;;;;;4.75;75.23;101099.38;5066832;28;20543;-78
2022/01/30 09:00:52;;;;;;;19.65;6.32;;;;;;;5.04;74.49;101098.59;5065146;28;20115;-80
2022/01/30 09:06:01;;;;;;;23.02;3.40;;;;;;;4.93;74.26;101108.88;5074775;28;20074;-79
2022/01/30 09:08:26;;;;;;;21.38;5.40;;;;;;;5.19;74.16;101091.22;5085582;28;20020;-80
2022/01/30 09:10:52;;;;;;;16.98;5.68;;;;;;;5.13;73.62;101100.09;5086127;28;20233;-80
2022/01/30 09:13:17;;;;;;;16.73;5.43;;;;;;;5.25;73.31;101090.44;5085026;28;20094;-76
2022/01/30 09:15:43;;;;;;;17.43;6.07;;;;;;;5.34;73.04;101087.59;5086427;28;20035;-81
2022/01/30 09:18:10;;;;;;;22.23;5.43;;;;;;;5.22;74.08;101090.00;5058085;28;20273;-80
2022/01/30 09:20:42;;;;;;;15.18;4.35;;;;;;;5.16;73.10;101074.56;5085094;28;20688;-79
2022/01/30 09:23:10;;;;;;;20.02;6.03;;;;;;;5.50;72.25;101062.09;5080370;28;20028;-79
2022/01/30 09:25:37;;;;;;;21.60;4.45;;;;;;;5.53;72.93;101050.06;5086257;28;20031;-78
2022/01/30 09:28:02;;;;;;;26.05;5.43;;;;;;;5.18;73.05;101054.41;5086295;28;20048;-79
2022/01/30 09:30:28;;;;;;;37.25;6.93;;;;;;;5.52;72.81;101067.31;5077039;28;20048;-78
2022/01/30 09:32:53;;;;;;;18.92;5.30;;;;;;;5.11;74.60;101061.63;5065338;28;20041;-80
2022/01/30 09:35:18;;;;;;;14.77;5.35;;;;;;;5.19;73.83;101064.19;5062631;28;20029;-78
2022/01/30 09:37:44;;;;;;;20.40;4.75;;;;;;;5.03;74.69;101059.91;5065757;28;20465;-79
2022/01/30 09:40:10;;;;;;;21.50;5.05;;;;;;;5.25;74.09;101079.63;5063525;28;20030;-79
2022/01/30 09:42:35;;;;;;;20.95;6.38;;;;;;;5.06;73.17;101075.75;5065500;28;20028;-78
2022/01/30 09:45:04;;;;;;;16.75;4.72;;;;;;;5.64;72.95;101068.41;5064824;28;20056;-78
2022/01/30 09:47:30;;;;;;;17.58;5.28;;;;;;;5.55;73.14;101075.84;5064980;28;20326;-79
2022/01/30 09:49:58;;;;;;;18.60;6.93;;;;;;;5.63;72.15;101074.88;5064592;28;20125;-78
2022/01/30 09:52:24;;;;;;;19.63;5.30;;;;;;;5.73;71.85;101079.94;5063729;28;20033;-78
2022/01/30 09:54:50;;;;;;;17.70;4.82;;;;;;;5.30;73.40;101089.84;5064913;28;20036;-80
2022/01/30 09:57:16;;;;;;;21.60;6.10;;;;;;;5.79;72.57;101094.53;5075867;28;20043;-79
2022/01/30 09:59:41;;;;;;;18.30;3.83;;;;;;;5.82;72.88;101091.41;5084386;28;20031;-78
2022/01/30 10:02:08;;;;;;;29.20;7.10;;;;;;;5.86;72.55;101089.97;5081872;28;20028;-78
2022/01/30 10:04:35;;;;;;;18.48;6.07;;;;;;;5.51;72.47;101098.97;5084090;28;20044;-79
2022/01/30 10:07:11;;;;;;;19.88;6.82;;;;;;;6.04;71.22;101104.88;5084326;28;20039;-78
2022/01/30 10:09:43;;;;;;;24.25;6.07;;;;;;;5.75;71.88;101094.09;5071838;28;20040;-79
2022/01/30 10:12:16;;;;;;;15.50;5.38;;;;;;;5.79;71.25;101091.81;5065445;28;20044;-79
2022/01/30 10:15:03;;;;;;;19.75;6.13;;;;;;;5.88;70.12;101089.78;5060227;28;20117;-79
2022/01/30 10:17:59;;;;;;;24.10;7.32;;;;;;;5.64;69.94;101084.66;5065751;28;20434;-78
2022/01/30 10:20:26;;;;;;;17.30;4.70;;;;;;;5.86;69.23;101084.56;5056606;28;20048;-79
2022/01/30 10:23:01;;;;;;;33.92;5.95;;;;;;;5.77;69.87;101074.94;5065169;28;20094;-79
2022/01/30 10:25:38;;;;;;;12.85;5.05;;;;;;;6.23;68.96;101089.75;5065860;28;20032;-78
2022/01/30 10:28:08;;;;;;;21.70;6.53;;;;;;;6.19;68.55;101081.19;5080461;28;20299;-79
2022/01/30 10:30:58;;;;;;;24.10;7.05;;;;;;;6.22;69.40;101092.66;5065081;28;20260;-80
2022/01/30 10:33:46;;;;;;;419.08;47.50;;;;;;;6.24;69.95;101079.75;5066559;28;20051;-79
2022/01/30 10:36:18;;;;;;;113.68;16.33;;;;;;;6.25;67.21;101076.84;5064463;28;20021;-78
2022/01/30 10:38:52;;;;;;;81.20;11.93;;;;;;;6.21;68.51;101072.03;5066028;28;20034;-80
2022/01/30 10:41:20;;;;;;;20.80;4.72;;;;;;;6.29;67.65;101083.53;5071763;28;20161;-84
2022/01/30 10:43:53;;;;;;;30.15;8.77;;;;;;;6.42;67.28;101104.41;5085089;28;20030;-81
2022/01/30 10:49:25;;;;;;;23.35;8.38;;;;;;;5.94;66.96;101097.94;5082706;28;20093;-81
2022/01/30 10:51:54;;;;;;;25.17;6.18;;;;;;;6.12;66.67;101091.16;5085696;28;20204;-81
2022/01/30 10:54:19;;;;;;;28.13;7.55;;;;;;;6.42;68.50;101101.69;5085065;28;20451;-80
2022/01/30 10:56:45;;;;;;;17.52;5.20;;;;;;;6.62;65.78;101098.19;5084233;28;20035;-82
2022/01/30 10:59:16;;;;;;;24.33;6.18;;;;;;;6.57;65.12;101094.44;5086141;28;20028;-78
2022/01/30 11:01:45;;;;;;;27.98;5.53;;;;;;;6.36;65.23;101088.13;5083985;28;20032;-81
2022/01/30 11:04:20;;;;;;;21.02;6.07;;;;;;;6.45;63.74;101092.31;5075769;28;20024;-81
2022/01/30 11:06:46;;;;;;;27.95;6.22;;;;;;;5.70;64.00;101102.81;5065915;28;20028;-81
2022/01/30 11:09:14;;;;;;;42.33;7.90;;;;;;;5.87;64.59;101091.66;5067750;28;20082;-83
2022/01/30 11:11:54;;;;;;;20.80;7.03;;;;;;;5.96;62.89;101092.31;5068013;28;20024;-81
2022/01/30 11:14:23;;;;;;;32.10;5.82;;;;;;;6.10;63.60;101087.00;5066392;28;20032;-81
2022/01/30 11:16:58;;;;;;;35.10;5.65;;;;;;;6.00;63.32;101081.94;5065078;28;20044;-84
2022/01/30 11:19:25;;;;;;;15.60;4.75;;;;;;;6.00;63.66;101095.47;5063152;28;20064;-84
2022/01/30 11:21:57;;;;;;;28.25;6.68;;;;;;;5.81;61.77;101101.41;5065869;28;20063;-83
2022/01/30 11:24:25;;;;;;;18.08;8.60;;;;;;;5.75;61.90;101109.50;5046549;28;20057;-83
2022/01/30 11:26:51;;;;;;;38.97;6.70;;;;;;;5.83;62.10;101101.22;5064102;28;20083;-84
2022/01/30 11:29:20;;;;;;;24.92;7.93;;;;;;;5.67;60.72;101097.81;5064879;28;20044;-84
2022/01/30 11:31:46;;;;;;;27.30;8.07;;;;;;;5.83;60.21;101101.22;5062667;28;20082;-84
2022/01/30 11:34:12;;;;;;;40.85;9.38;;;;;;;5.59;61.03;101089.84;5094434;28;20024;-84
2022/01/30 11:36:40;;;;;;;19.85;5.57;;;;;;;5.92;61.10;101094.59;5082949;28;20386;-84
2022/01/30 11:39:08;;;;;;;24.00;6.75;;;;;;;5.98;60.76;101092.94;5085477;28;20047;-84
2022/01/30 11:41:34;;;;;;;21.88;6.65;;;;;;;5.93;60.57;101106.25;5065184;28;20028;-82
2022/01/30 11:44:20;;;;;;;26.13;7.38;;;;;;;5.84;59.43;101097.44;5085035;28;20024;-84
2022/01/30 11:46:51;;;;;;;19.80;6.18;;;;;;;5.49;58.74;101077.47;5078051;28;20036;-84
2022/01/30 11:49:17;;;;;;;35.70;8.20;;;;;;;5.81;59.16;101081.63;5084068;28;20032;-84
2022/01/30 11:51:50;;;;;;;27.55;8.43;;;;;;;5.99;59.25;101088.38;5085956;28;20063;-84
2022/01/30 11:54:34;;;;;;;25.23;7.50;;;;;;;6.27;59.17;101080.19;5083951;28;20067;-84
2022/01/30 11:57:00;;;;;;;25.48;6.20;;;;;;;6.25;57.74;101062.44;5084449;28;20036;-84
2022/01/30 11:59:39;;;;;;;19.05;5.85;;;;;;;6.69;58.41;101062.13;5085766;28;20051;-84
2022/01/30 12:02:25;;;;;;;45.80;8.90;;;;;;;6.13;58.08;101062.22;5082998;28;20035;-86
2022/01/30 12:05:03;;;;;;;16.92;5.95;;;;;;;6.45;58.07;101065.22;5085996;28;20023;-81
2022/01/30 12:07:40;;;;;;;19.13;5.57;;;;;;;6.59;57.41;101063.34;5083870;28;20540;-83
2022/01/30 12:10:21;;;;;;;20.17;4.32;;;;;;;6.79;58.16;101065.28;5089339;28;20402;-83
2022/01/30 12:16:47;;;;;;;20.52;5.30;;;;;;;6.84;59.16;101072.78;5103320;28;20134;-84
2022/01/30 12:19:16;;;;;;;19.48;6.93;;;;;;;6.83;57.93;101061.13;5094412;28;20085;-83
2022/01/30 12:21:42;;;;;;;23.38;7.05;;;;;;;6.61;57.49;101074.81;5064910;28;20454;-83
2022/01/30 12:24:20;;;;;;;40.55;7.35;;;;;;;6.86;57.27;101063.41;5062808;28;20059;-83
2022/01/30 12:26:58;;;;;;;17.60;6.03;;;;;;;6.94;58.07;101072.34;5067434;28;20078;-84
2022/01/30 12:29:38;;;;;;;24.05;6.75;;;;;;;6.84;58.65;101060.06;5068652;28;20040;-82
2022/01/30 12:32:35;;;;;;;15.57;4.38;;;;;;;6.77;58.33;101062.75;5078277;28;20355;-83
2022/01/30 12:35:02;;;;;;;23.38;5.00;;;;;;;6.83;58.99;101055.69;5045209;28;20032;-82
2022/01/30 12:37:32;;;;;;;23.58;6.82;;;;;;;7.00;57.78;101060.69;5065634;28;20127;-83
2022/01/30 12:40:01;;;;;;;26.05;6.57;;;;;;;6.82;58.51;101064.00;5068568;28;20027;-83
2022/01/30 12:42:32;;;;;;;18.95;5.30;;;;;;;6.89;57.33;101052.13;5088603;28;20039;-82